Time,TemperatureF,DewpointF,PressureIn,WindDirection,WindDirectionDegrees,WindSpeedMPH,WindSpeedGustMPH,Humidity,HourlyPrecipIn,Conditions,Clouds,dailyrainin,SolarRadiationWatts/m^2,SoftwareType,DateUTC
2014-12-24 00:00:00,12.9,2.0,30.22,WNW,302,13.0,13.0,61,0.00,,,0.00,0,Wunderground v.1.15,2014-12-24 07:00:00,
2014-12-24 00:05:00,12.9,2.0,30.22,SW,223,12.0,13.0,61,0.00,,,0.00,0,Wunderground v.1.15,2014-12-24 07:05:00,
2014-12-24 00:10:00,12.9,2.0,30.22,NW,320,10.0,11.0,61,0.00,,,0.00,0,Wunderground v.1.15,2014-12-24 07:10:00,
2014-12-24 00:15:00,12.9,2.0,30.22,SW,234,11.0,11.0,61,0.00,,,0.00,0,Wunderground v.1.15,2014-12-24 07:15:00,
2014-12-24 00:20:00,12.9,2.0,30.21,South,188,13.0,13.0,61,0.00,,,0.00,0,Wunderground v.1.15,2014-12-24 07:20:00,
2014-12-24 00:30:00,12.9,2.0,30.21,SW,232,12.0,14.0,61,0.00,,,0.00,0,Wunderground v.1.15,2014-12-24 07:30:00,
2014-12-24 00:35:00,12.9,2.0,30.20,SW,226,13.0,21.0,61,0.00,,,0.00,0,Wunderground v.1.15,2014-12-24 07:35:00,
2014-12-24 00:45:00,12.9,2.3,30.20,WSW,237,13.0,14.0,62,0.00,,,0.00,0,Wunderground v.1.15,2014-12-24 07:45:00,
2014-12-24 00:50:00,12.9,2.3,30.20,SW,229,12.0,23.0,62,0.00,,,0.00,0,Wunderground v.1.15,2014-12-24 07:50:00,
2014-12-24 00:55:00,12.9,2.3,30.20,NW,322,13.0,23.0,62,0.00,,,0.00,0,Wunderground v.1.15,2014-12-24 07:55:00,
2014-12-24 01:00:00,12.9,2.3,30.20,West,261,13.0,13.0,62,0.00,,,0.00,0,Wunderground v.1.15,2014-12-24 08:00:00,
2014-12-24 01:10:00,13.1,2.5,30.19,NNW,343,13.0,13.0,62,0.00,,,0.00,0,Wunderground v.1.15,2014-12-24 08:10:00,
2014-12-24 01:15:00,13.1,2.5,30.19,SSW,210,13.0,16.0,62,0.00,,,0.00,0,Wunderground v.1.15,2014-12-24 08:15:00,
2014-12-24 01:20:00,13.1,2.5,30.19,SW,217,13.0,13.0,62,0.00,,,0.00,0,Wunderground v.1.15,2014-12-24 08:20:00,
2014-12-24 01:25:00,13.1,2.2,30.19,NW,311,13.0,13.0,61,0.00,,,0.00,0,Wunderground v.1.15,2014-12-24 08:25:00,
2014-12-24 01:30:00,13.3,2.3,30.19,North,356,13.0,13.0,61,0.00,,,0.00,0,Wunderground v.1.15,2014-12-24 08:30:00,
2014-12-24 01:40:00,13.3,2.7,30.24,SW,216,10.0,17.0,62,0.00,,,0.00,0,Wunderground v.1.15,2014-12-24 08:40:00,
2014-12-24 01:45:00,13.3,2.3,30.24,SW,215,11.0,17.0,61,0.00,,,0.00,0,Wunderground v.1.15,2014-12-24 08:45:00,
2014-12-24 01:50:00,13.3,2.3,30.21,SW,232,12.0,23.0,61,0.00,,,0.00,0,Wunderground v.1.15,2014-12-24 08:50:00,
2014-12-24 02:00:00,13.3,2.3,30.21,South,182,13.0,17.0,61,0.00,,,0.00,0,Wunderground v.1.15,2014-12-24 09:00:00,
2014-12-24 02:05:00,13.5,2.5,30.20,SW,220,14.0,17.0,61,0.00,,,0.00,0,Wunderground v.1.15,2014-12-24 09:05:00,
2014-12-24 02:10:00,13.5,2.5,30.20,NNW,347,14.0,14.0,61,0.00,,,0.00,0,Wunderground v.1.15,2014-12-24 09:10:00,
2014-12-24 02:20:00,13.5,2.9,30.17,WNW,302,12.0,12.0,62,0.00,,,0.00,0,Wunderground v.1.15,2014-12-24 09:20:00,
2014-12-24 02:25:00,13.6,2.3,30.17,WSW,237,14.0,14.0,60,0.00,,,0.00,0,Wunderground v.1.15,2014-12-24 09:25:00,
2014-12-24 02:35:00,14.0,2.7,30.18,SW,219,17.0,23.0,60,0.00,,,0.00,0,Wunderground v.1.15,2014-12-24 09:35:00,
2014-12-24 02:40:00,14.1,3.1,30.18,WSW,248,16.0,25.0,61,0.00,,,0.00,0,Wunderground v.1.15,2014-12-24 09:40:00,
2014-12-24 02:50:00,14.1,3.5,30.17,WNW,299,15.0,15.0,62,0.00,,,0.00,0,Wunderground v.1.15,2014-12-24 09:50:00,
2014-12-24 02:55:00,14.1,2.7,30.17,SW,236,15.0,30.0,60,0.00,,,0.00,0,Wunderground v.1.15,2014-12-24 09:55:00,
2014-12-24 03:00:00,14.1,2.7,30.17,South,179,15.0,34.0,60,0.00,,,0.00,0,Wunderground v.1.15,2014-12-24 10:00:00,
2014-12-24 03:10:00,14.1,2.4,30.16,South,188,17.0,26.0,59,0.00,,,0.00,0,Wunderground v.1.15,2014-12-24 10:10:00,
2014-12-24 03:20:00,14.3,1.8,30.16,SSW,205,15.0,22.0,57,0.00,,,0.00,0,Wunderground v.1.15,2014-12-24 10:20:00,
2014-12-24 03:25:00,14.3,1.8,30.16,SW,217,15.0,22.0,57,0.00,,,0.00,0,Wunderground v.1.15,2014-12-24 10:25:00,
2014-12-24 03:30:00,14.3,1.4,30.16,ESE,112,14.0,14.0,56,0.00,,,0.00,0,Wunderground v.1.15,2014-12-24 10:30:00,
2014-12-24 03:40:00,14.3,1.4,30.17,SSW,192,15.0,15.0,56,0.00,,,0.00,0,Wunderground v.1.15,2014-12-24 10:40:00,
2014-12-24 03:50:00,14.6,1.3,30.16,SE,144,17.0,17.0,55,0.00,,,0.00,0,Wunderground v.1.15,2014-12-24 10:50:00,
2014-12-24 03:55:00,14.8,1.1,30.16,SW,220,16.0,17.0,54,0.00,,,0.00,0,Wunderground v.1.15,2014-12-24 10:55:00,
2014-12-24 04:00:00,14.9,1.2,30.16,SW,234,15.0,21.0,54,0.00,,,0.00,0,Wunderground v.1.15,2014-12-24 11:00:00,
2014-12-24 04:05:00,14.9,0.8,30.17,SSW,196,14.0,21.0,53,0.00,,,0.00,0,Wunderground v.1.15,2014-12-24 11:05:00,
2014-12-24 04:10:00,15.1,1.0,30.17,South,172,14.0,14.0,53,0.00,,,0.00,0,Wunderground v.1.15,2014-12-24 11:10:00,
2014-12-24 04:15:00,15.1,1.0,30.17,South,176,14.0,14.0,53,0.00,,,0.00,0,Wunderground v.1.15,2014-12-24 11:15:00,
2014-12-24 04:25:00,15.4,1.3,30.17,SW,215,13.0,15.0,53,0.00,,,0.00,0,Wunderground v.1.15,2014-12-24 11:25:00,
2014-12-24 04:30:00,15.6,1.5,30.17,WNW,287,12.0,22.0,53,0.00,,,0.00,0,Wunderground v.1.15,2014-12-24 11:30:00,
2014-12-24 04:35:00,15.7,1.2,30.16,SSW,195,12.0,22.0,52,0.00,,,0.00,0,Wunderground v.1.15,2014-12-24 11:35:00,
2014-12-24 04:45:00,15.9,1.8,30.16,SSE,162,12.0,18.0,53,0.00,,,0.00,0,Wunderground v.1.15,2014-12-24 11:45:00,
2014-12-24 04:55:00,15.9,1.8,30.15,SSW,212,10.0,11.0,53,0.00,,,0.00,0,Wunderground v.1.15,2014-12-24 11:55:00,
2014-12-24 05:00:00,16.1,1.9,30.15,SW,223,11.0,14.0,53,0.00,,,0.00,0,Wunderground v.1.15,2014-12-24 12:00:00,
2014-12-24 05:10:00,16.7,2.5,30.13,SW,224,12.0,12.0,53,0.00,,,0.00,0,Wunderground v.1.15,2014-12-24 12:10:00,
2014-12-24 05:15:00,17.0,2.8,30.13,WSW,248,11.0,16.0,53,0.00,,,0.00,0,Wunderground v.1.15,2014-12-24 12:15:00,
2014-12-24 05:25:00,17.5,3.3,30.12,WSW,253,12.0,14.0,53,0.00,,,0.00,0,Wunderground v.1.15,2014-12-24 12:25:00,
2014-12-24 05:30:00,17.8,3.9,30.12,SSW,192,11.0,11.0,54,0.00,,,0.00,0,Wunderground v.1.15,2014-12-24 12:30:00,
2014-12-24 05:40:00,18.4,4.9,30.09,SSE,164,11.0,16.0,55,0.00,,,0.00,0,Wunderground v.1.15,2014-12-24 12:40:00,
2014-12-24 05:45:00,18.8,5.3,30.09,South,191,10.0,16.0,55,0.00,,,0.00,0,Wunderground v.1.15,2014-12-24 12:45:00,
2014-12-24 05:55:00,19.1,6.0,30.09,South,172,8.0,13.0,56,0.00,,,0.00,0,Wunderground v.1.15,2014-12-24 12:55:00,
2014-12-24 06:05:00,19.4,6.2,30.09,SSW,202,8.0,8.0,56,0.00,,,0.00,0,Wunderground v.1.15,2014-12-24 13:05:00,
2014-12-24 06:10:00,19.7,6.5,30.09,SSW,205,9.0,9.0,56,0.00,,,0.00,0,Wunderground v.1.15,2014-12-24 13:10:00,
2014-12-24 06:15:00,20.2,6.2,30.09,SW,223,11.0,11.0,54,0.00,,,0.00,0,Wunderground v.1.15,2014-12-24 13:15:00,
2014-12-24 06:20:00,20.5,5.6,30.07,WSW,240,12.0,12.0,52,0.00,,,0.00,0,Wunderground v.1.15,2014-12-24 13:20:00,
2014-12-24 06:30:00,20.6,5.3,30.07,SSW,203,11.0,11.0,51,0.00,,,0.00,0,Wunderground v.1.15,2014-12-24 13:30:00,
2014-12-24 06:40:00,20.8,5.9,30.09,South,184,11.0,11.0,52,0.00,,,0.00,0,Wunderground v.1.15,2014-12-24 13:40:00,
2014-12-24 06:45:00,20.8,5.5,30.09,SSW,208,11.0,13.0,51,0.00,,,0.00,0,Wunderground v.1.15,2014-12-24 13:45:00,
2014-12-24 06:55:00,20.8,5.5,30.09,SSW,208,12.0,14.0,51,0.00,,,0.00,0,Wunderground v.1.15,2014-12-24 13:55:00,
2014-12-24 07:05:00,20.5,5.2,30.09,SW,223,11.0,18.0,51,0.00,,,0.00,0,Wunderground v.1.15,2014-12-24 14:05:00,
2014-12-24 07:15:00,20.0,5.2,30.09,SW,216,12.0,18.0,52,0.00,,,0.00,0,Wunderground v.1.15,2014-12-24 14:15:00,
2014-12-24 07:25:00,19.5,4.3,30.09,NNW,336,12.0,13.0,51,0.00,,,0.00,0,Wunderground v.1.15,2014-12-24 14:25:00,
2014-12-24 07:30:00,19.4,4.6,30.09,SE,130,12.0,12.0,52,0.00,,,0.00,0,Wunderground v.1.15,2014-12-24 14:30:00,
2014-12-24 07:40:00,19.4,4.6,30.11,SSW,195,13.0,13.0,52,0.00,,,0.00,0,Wunderground v.1.15,2014-12-24 14:40:00,
2014-12-24 07:50:00,19.7,5.3,30.11,North,359,13.0,13.0,53,0.00,,,0.00,0,Wunderground v.1.15,2014-12-24 14:50:00,
2014-12-24 07:55:00,19.9,5.5,30.11,WNW,288,12.0,14.0,53,0.00,,,0.00,0,Wunderground v.1.15,2014-12-24 14:55:00,
2014-12-24 08:05:00,20.2,5.4,30.10,SW,215,14.0,25.0,52,0.00,,,0.00,0,Wunderground v.1.15,2014-12-24 15:05:00,
2014-12-24 08:10:00,20.3,5.5,30.10,SSW,192,12.0,12.0,52,0.00,,,0.00,0,Wunderground v.1.15,2014-12-24 15:10:00,
2014-12-24 08:15:00,20.3,5.9,30.10,South,181,12.0,14.0,53,0.00,,,0.00,0,Wunderground v.1.15,2014-12-24 15:15:00,
2014-12-24 08:20:00,20.6,6.6,30.09,South,179,12.0,12.0,54,0.00,,,0.00,0,Wunderground v.1.15,2014-12-24 15:20:00,
2014-12-24 08:25:00,21.0,6.5,30.09,South,178,11.0,12.0,53,0.00,,,0.00,0,Wunderground v.1.15,2014-12-24 15:25:00,
2014-12-24 08:35:00,21.6,7.5,30.08,SSE,167,10.0,17.0,54,0.00,,,0.00,5,Wunderground v.1.15,2014-12-24 15:35:00,
2014-12-24 08:40:00,21.9,7.8,30.08,SSW,205,9.0,9.0,54,0.00,,,0.00,7,Wunderground v.1.15,2014-12-24 15:40:00,
2014-12-24 08:45:00,22.2,8.5,30.08,SW,229,8.0,14.0,55,0.00,,,0.00,7,Wunderground v.1.15,2014-12-24 15:45:00,
2014-12-24 08:50:00,22.9,8.7,30.08,WSW,248,9.0,14.0,54,0.00,,,0.00,11,Wunderground v.1.15,2014-12-24 15:50:00,
2014-12-24 09:00:00,23.5,8.9,30.08,South,175,11.0,11.0,53,0.00,,,0.00,11,Wunderground v.1.15,2014-12-24 16:00:00,
2014-12-24 09:05:00,23.6,8.9,30.07,SSW,212,11.0,11.0,53,0.00,,,0.00,11,Wunderground v.1.15,2014-12-24 16:05:00,
2014-12-24 09:15:00,23.5,8.9,30.07,SSW,203,13.0,13.0,53,0.00,,,0.00,12,Wunderground v.1.15,2014-12-24 16:15:00,
2014-12-24 09:20:00,23.5,8.9,30.06,WSW,246,11.0,11.0,53,0.00,,,0.00,14,Wunderground v.1.15,2014-12-24 16:20:00,
2014-12-24 09:25:00,23.5,8.9,30.06,SW,216,11.0,15.0,53,0.00,,,0.00,16,Wunderground v.1.15,2014-12-24 16:25:00,
2014-12-24 09:30:00,23.5,8.9,30.06,WNW,301,11.0,16.0,53,0.00,,,0.00,18,Wunderground v.1.15,2014-12-24 16:30:00,
2014-12-24 09:40:00,23.8,9.1,30.07,SE,140,12.0,13.0,53,0.00,,,0.00,16,Wunderground v.1.15,2014-12-24 16:40:00,
2014-12-24 09:45:00,23.9,9.6,30.07,SSE,165,11.0,13.0,54,0.00,,,0.00,23,Wunderground v.1.15,2014-12-24 16:45:00,
2014-12-24 09:50:00,24.1,9.4,30.07,SSE,154,11.0,11.0,53,0.00,,,0.00,21,Wunderground v.1.15,2014-12-24 16:50:00,
2014-12-24 10:00:00,24.4,9.3,30.07,SSE,147,11.0,11.0,52,0.00,,,0.00,21,Wunderground v.1.15,2014-12-24 17:00:00,
2014-12-24 10:05:00,24.4,9.3,30.05,SE,133,10.0,11.0,52,0.00,,,0.00,23,Wunderground v.1.15,2014-12-24 17:05:00,
2014-12-24 10:10:00,24.5,9.4,30.05,SSW,196,9.0,9.0,52,0.00,,,0.00,25,Wunderground v.1.15,2014-12-24 17:10:00,
2014-12-24 10:15:00,24.5,9.4,30.05,SW,223,10.0,18.0,52,0.00,,,0.00,35,Wunderground v.1.15,2014-12-24 17:15:00,
2014-12-24 10:20:00,24.7,10.0,30.05,SSW,212,12.0,12.0,53,0.00,,,0.00,39,Wunderground v.1.15,2014-12-24 17:20:00,
2014-12-24 10:30:00,25.0,10.3,30.05,South,169,12.0,12.0,53,0.00,,,0.00,14,Wunderground v.1.15,2014-12-24 17:30:00,
2014-12-24 10:40:00,25.1,10.8,30.00,WSW,243,9.0,9.0,54,0.00,,,0.00,25,Wunderground v.1.15,2014-12-24 17:40:00,
2014-12-24 10:45:00,25.3,11.4,30.00,WSW,239,5.0,10.0,55,0.00,,,0.00,39,Wunderground v.1.15,2014-12-24 17:45:00,
2014-12-24 10:50:00,25.3,11.8,30.01,West,267,4.0,4.0,56,0.00,,,0.00,23,Wunderground v.1.15,2014-12-24 17:50:00,
2014-12-24 11:00:00,25.4,11.9,30.01,WNW,294,4.0,6.0,56,0.00,,,0.00,49,Wunderground v.1.15,2014-12-24 18:00:00,
2014-12-24 11:05:00,25.6,12.1,30.00,South,174,5.0,6.0,56,0.00,,,0.00,33,Wunderground v.1.15,2014-12-24 18:05:00,
2014-12-24 11:10:00,25.8,11.8,30.00,WSW,237,6.0,10.0,55,0.00,,,0.00,39,Wunderground v.1.15,2014-12-24 18:10:00,
2014-12-24 11:20:00,26.1,12.1,29.98,SE,143,7.0,7.0,55,0.00,,,0.00,46,Wunderground v.1.15,2014-12-24 18:20:00,
2014-12-24 11:25:00,26.4,12.4,29.98,NW,309,6.0,7.0,55,0.00,,,0.00,46,Wunderground v.1.15,2014-12-24 18:25:00,
2014-12-24 11:35:00,26.9,12.9,29.94,SSW,198,7.0,10.0,55,0.00,,,0.00,40,Wunderground v.1.15,2014-12-24 18:35:00,
2014-12-24 11:40:00,27.0,13.0,29.94,SW,236,7.0,7.0,55,0.00,,,0.00,40,Wunderground v.1.15,2014-12-24 18:40:00,
2014-12-24 11:45:00,27.2,13.1,29.94,South,174,8.0,16.0,55,0.00,,,0.00,40,Wunderground v.1.15,2014-12-24 18:45:00,
2014-12-24 11:50:00,27.5,13.0,29.92,SW,220,10.0,10.0,54,0.00,,,0.00,39,Wunderground v.1.15,2014-12-24 18:50:00,
2014-12-24 12:00:00,28.2,13.2,29.92,NNW,336,10.0,21.0,53,0.00,,,0.00,39,Wunderground v.1.15,2014-12-24 19:00:00,
2014-12-24 12:05:00,28.7,13.3,29.87,North,357,13.0,21.0,52,0.00,,,0.00,40,Wunderground v.1.15,2014-12-24 19:05:00,
2014-12-24 12:10:00,29.0,14.0,29.87,SSW,199,12.0,16.0,53,0.00,,,0.00,44,Wunderground v.1.15,2014-12-24 19:10:00,
2014-12-24 12:15:00,29.3,13.4,29.87,SSW,200,12.0,16.0,51,0.00,,,0.00,51,Wunderground v.1.15,2014-12-24 19:15:00,
2014-12-24 12:20:00,29.5,13.6,29.87,North,357,12.0,20.0,51,0.00,,,0.00,55,Wunderground v.1.15,2014-12-24 19:20:00,
2014-12-24 12:30:00,30.1,14.1,29.87,SSW,199,11.0,11.0,51,0.00,,,0.00,65,Wunderground v.1.15,2014-12-24 19:30:00,
2014-12-24 12:35:00,30.4,14.0,29.86,SW,220,10.0,14.0,50,0.00,,,0.00,65,Wunderground v.1.15,2014-12-24 19:35:00,
2014-12-24 12:40:00,30.6,14.1,29.86,SW,219,11.0,14.0,50,0.00,,,0.00,63,Wunderground v.1.15,2014-12-24 19:40:00,
2014-12-24 12:45:00,30.7,13.8,29.86,South,185,10.0,14.0,49,0.00,,,0.00,67,Wunderground v.1.15,2014-12-24 19:45:00,
2014-12-24 12:55:00,30.9,14.4,29.84,NNW,340,7.0,8.0,50,0.00,,,0.00,60,Wunderground v.1.15,2014-12-24 19:55:00,
2014-12-24 13:00:00,31.0,14.0,29.84,SSW,200,8.0,8.0,49,0.00,,,0.00,56,Wunderground v.1.15,2014-12-24 20:00:00,
2014-12-24 13:05:00,31.2,14.2,29.84,SSW,196,8.0,22.0,49,0.00,,,0.00,56,Wunderground v.1.15,2014-12-24 20:05:00,
2014-12-24 13:10:00,31.3,13.9,29.84,NNW,347,10.0,10.0,48,0.00,,,0.00,58,Wunderground v.1.15,2014-12-24 20:10:00,
2014-12-24 13:15:00,31.3,13.9,29.84,NW,312,12.0,25.0,48,0.00,,,0.00,58,Wunderground v.1.15,2014-12-24 20:15:00,
2014-12-24 13:20:00,31.5,13.6,29.82,SSW,212,10.0,10.0,47,0.00,,,0.00,62,Wunderground v.1.15,2014-12-24 20:20:00,
2014-12-24 13:30:00,31.8,13.3,29.82,North,359,10.0,13.0,46,0.00,,,0.00,67,Wunderground v.1.15,2014-12-24 20:30:00,
2014-12-24 13:35:00,32.1,13.1,29.82,SW,217,11.0,18.0,45,0.00,,,0.00,62,Wunderground v.1.15,2014-12-24 20:35:00,
2014-12-24 13:40:00,32.2,13.7,29.82,North,359,10.0,11.0,46,0.00,,,0.00,56,Wunderground v.1.15,2014-12-24 20:40:00,
2014-12-24 13:50:00,32.4,13.9,29.80,SE,136,8.0,8.0,46,0.00,,,0.00,56,Wunderground v.1.15,2014-12-24 20:50:00,
2014-12-24 13:55:00,32.4,13.9,29.80,SSE,151,4.0,9.0,46,0.00,,,0.00,77,Wunderground v.1.15,2014-12-24 20:55:00,
2014-12-24 14:00:00,32.5,13.5,29.80,SSE,151,4.0,8.0,45,0.00,,,0.00,60,Wunderground v.1.15,2014-12-24 21:00:00,
2014-12-24 14:05:00,32.5,12.5,29.80,SSW,195,7.0,9.0,43,0.00,,,0.00,63,Wunderground v.1.15,2014-12-24 21:05:00,
2014-12-24 14:15:00,32.7,13.2,29.80,South,189,4.0,6.0,44,0.00,,,0.00,77,Wunderground v.1.15,2014-12-24 21:15:00,
2014-12-24 14:20:00,32.7,13.2,29.81,SE,136,5.0,7.0,44,0.00,,,0.00,72,Wunderground v.1.15,2014-12-24 21:20:00,
2014-12-24 14:30:00,32.8,13.8,29.81,SE,136,5.0,5.0,45,0.00,,,0.00,77,Wunderground v.1.15,2014-12-24 21:30:00,
2014-12-24 14:40:00,33.1,13.5,29.83,ESE,112,3.0,3.0,44,0.00,,,0.00,84,Wunderground v.1.15,2014-12-24 21:40:00,
2014-12-24 14:45:00,33.1,13.5,29.83,ESE,121,3.0,4.0,44,0.00,,,0.00,88,Wunderground v.1.15,2014-12-24 21:45:00,
2014-12-24 14:50:00,33.2,13.1,29.84,ESE,109,4.0,6.0,43,0.00,,,0.00,84,Wunderground v.1.15,2014-12-24 21:50:00,
2014-12-24 15:00:00,33.5,12.8,29.84,NW,325,6.0,9.0,42,0.00,,,0.00,88,Wunderground v.1.15,2014-12-24 22:00:00,
2014-12-24 15:05:00,33.7,13.0,29.80,North,359,9.0,14.0,42,0.00,,,0.00,74,Wunderground v.1.15,2014-12-24 22:05:00,
2014-12-24 15:10:00,33.8,12.6,29.80,North,354,10.0,15.0,41,0.00,,,0.00,62,Wunderground v.1.15,2014-12-24 22:10:00,
2014-12-24 15:20:00,34.0,11.6,29.77,SSE,152,12.0,15.0,39,0.00,,,0.00,28,Wunderground v.1.15,2014-12-24 22:20:00,
2014-12-24 15:25:00,34.0,12.2,29.77,NNW,336,11.0,15.0,40,0.00,,,0.00,26,Wunderground v.1.15,2014-12-24 22:25:00,
2014-12-24 15:30:00,34.0,12.2,29.77,WNW,284,11.0,16.0,40,0.00,,,0.00,26,Wunderground v.1.15,2014-12-24 22:30:00,
2014-12-24 15:40:00,33.7,11.3,29.77,SW,223,11.0,11.0,39,0.00,,,0.00,25,Wunderground v.1.15,2014-12-24 22:40:00,
2014-12-24 15:50:00,33.1,11.4,29.78,NNW,339,10.0,10.0,40,0.00,,,0.00,21,Wunderground v.1.15,2014-12-24 22:50:00,
2014-12-24 15:55:00,32.8,11.1,29.78,SW,227,11.0,11.0,40,0.00,,,0.00,19,Wunderground v.1.15,2014-12-24 22:55:00,
2014-12-24 16:00:00,32.7,11.0,29.78,SSW,199,11.0,11.0,40,0.00,,,0.00,18,Wunderground v.1.15,2014-12-24 23:00:00,
2014-12-24 16:10:00,32.2,11.1,29.76,SW,217,11.0,11.0,41,0.00,,,0.00,16,Wunderground v.1.15,2014-12-24 23:10:00,
2014-12-24 16:20:00,31.8,10.7,29.77,NW,316,8.0,8.0,41,0.00,,,0.00,18,Wunderground v.1.15,2014-12-24 23:20:00,
2014-12-24 16:25:00,31.6,10.6,29.77,SW,230,7.0,8.0,41,0.00,,,0.00,11,Wunderground v.1.15,2014-12-24 23:25:00,
2014-12-24 16:35:00,31.5,11.0,29.75,SSW,203,6.0,8.0,42,0.00,,,0.00,5,Wunderground v.1.15,2014-12-24 23:35:00,
2014-12-24 16:40:00,31.3,10.8,29.75,SW,217,5.0,6.0,42,0.00,,,0.00,0,Wunderground v.1.15,2014-12-24 23:40:00,
2014-12-24 16:50:00,30.9,10.5,29.74,ESE,113,6.0,6.0,42,0.00,,,0.00,0,Wunderground v.1.15,2014-12-24 23:50:00,
2014-12-24 17:00:00,30.4,10.5,29.74,South,191,7.0,7.0,43,0.00,,,0.00,0,Wunderground v.1.15,2014-12-25 00:00:00,